Time;durP1;ratioP1;P1;durP2;ratioP2;P2;SDS_P1;SDS_P2;PMS_P1;PMS_P2;Temp;Humidity;BMP_temperature;BMP_pressure;BME280_temperature;BME280_humidity;BME280_pressure;Samples;Min_cycle;Max_cycle;Signal;HPM_P1;HPM_P2
2023/09/12 00:00:05;;;;;;;4.32;2.13;;;;;;;;;;5067696;28;20060;-67
2023/09/12 00:02:31;;;;;;;5.20;2.63;;;;;;;;;;5084265;28;20425;-66
2023/09/12 00:04:57;;;;;;;4.05;2.13;;;;;;;;;;5081708;28;20423;-67
2023/09/12 00:07:23;;;;;;;3.75;2.40;;;;;;;;;;5075956;28;20020;-67
2023/09/12 00:09:49;;;;;;;3.47;2.75;;;;;;;;;;5076178;28;20112;-67
2023/09/12 00:12:16;;;;;;;4.68;2.70;;;;;;;;;;5083342;28;20395;-66
2023/09/12 00:14:42;;;;;;;9.45;3.65;;;;;;;;;;5082391;28;20028;-66
2023/09/12 00:17:08;;;;;;;4.30;2.70;;;;;;;;;;5103433;28;20474;-66
2023/09/12 00:19:35;;;;;;;4.22;2.30;;;;;;;;;;5105150;28;20115;-67
2023/09/12 00:22:01;;;;;;;2.38;2.05;;;;;;;;;;5104260;28;20421;-66
2023/09/12 00:24:27;;;;;;;4.13;1.90;;;;;;;;;;5105594;28;20034;-66
2023/09/12 00:26:53;;;;;;;5.22;2.60;;;;;;;;;;5100602;28;21467;-66
2023/09/12 00:29:19;;;;;;;4.72;2.72;;;;;;;;;;5103996;28;20035;-67
2023/09/12 00:31:45;;;;;;;5.88;2.20;;;;;;;;;;5104897;28;20085;-66
2023/09/12 00:34:16;;;;;;;2.00;1.80;;;;;;;;;;5099789;28;20062;-67
2023/09/12 00:36:43;;;;;;;3.30;2.13;;;;;;;;;;5102405;28;20031;-66
2023/09/12 00:39:09;;;;;;;3.03;1.92;;;;;;;;;;5104560;28;20042;-66
2023/09/12 00:41:35;;;;;;;2.53;1.90;;;;;;;;;;5104525;28;20119;-67
2023/09/12 00:44:02;;;;;;;3.67;2.70;;;;;;;;;;5096554;28;20027;-67
2023/09/12 00:46:28;;;;;;;7.88;2.20;;;;;;;;;;5097528;28;20102;-66
2023/09/12 00:48:54;;;;;;;3.60;2.00;;;;;;;;;;5102022;28;20039;-67
2023/09/12 00:51:23;;;;;;;4.18;2.25;;;;;;;;;;5093404;28;20035;-66
2023/09/12 00:53:49;;;;;;;2.65;2.00;;;;;;;;;;5103377;28;20550;-66
2023/09/12 00:56:15;;;;;;;7.72;2.03;;;;;;;;;;5103501;28;20063;-66
2023/09/12 00:58:42;;;;;;;3.33;2.03;;;;;;;;;;5093755;28;20031;-66
2023/09/12 01:01:08;;;;;;;4.97;1.95;;;;;;;;;;5104071;28;20034;-66
2023/09/12 01:03:35;;;;;;;5.72;2.10;;;;;;;;;;5097593;28;20107;-66
2023/09/12 01:06:02;;;;;;;6.20;2.25;;;;;;;;;;5103735;28;20031;-66
2023/09/12 01:08:28;;;;;;;4.55;2.30;;;;;;;;;;5103065;28;20031;-66
2023/09/12 01:10:56;;;;;;;3.35;2.33;;;;;;;;;;5104961;28;20496;-68
2023/09/12 01:13:22;;;;;;;5.15;1.80;;;;;;;;;;5080370;28;20743;-66
2023/09/12 01:15:48;;;;;;;9.20;3.05;;;;;;;;;;5083513;28;20450;-66
2023/09/12 01:18:14;;;;;;;3.72;2.00;;;;;;;;;;5092884;28;20020;-68
2023/09/12 01:20:42;;;;;;;4.30;2.00;;;;;;;;;;5102550;28;20032;-67
2023/09/12 01:23:17;;;;;;;5.13;2.00;;;;;;;;;;5103453;28;20095;-67
2023/09/12 01:26:02;;;;;;;6.63;2.20;;;;;;;;;;5090946;28;20031;-66
2023/09/12 01:28:31;;;;;;;4.72;1.92;;;;;;;;;;5100221;28;20042;-66
2023/09/12 01:30:58;;;;;;;3.75;1.80;;;;;;;;;;5097135;28;20016;-66
2023/09/12 01:33:25;;;;;;;3.33;2.03;;;;;;;;;;5101450;28;20048;-66
2023/09/12 01:35:51;;;;;;;4.15;2.20;;;;;;;;;;5101796;28;20483;-67
2023/09/12 01:38:17;;;;;;;2.78;2.38;;;;;;;;;;5103486;28;20510;-67
2023/09/12 01:40:48;;;;;;;4.25;2.17;;;;;;;;;;5103876;28;20028;-66
2023/09/12 01:43:16;;;;;;;7.00;2.30;;;;;;;;;;5090692;28;20510;-66
2023/09/12 01:45:43;;;;;;;2.58;2.08;;;;;;;;;;5098404;28;20467;-66
2023/09/12 01:48:09;;;;;;;6.15;2.30;;;;;;;;;;5103737;28;20035;-66
2023/09/12 01:50:36;;;;;;;5.05;2.60;;;;;;;;;;5099070;27;20479;-66
2023/09/12 01:53:03;;;;;;;6.35;2.30;;;;;;;;;;5095717;28;20462;-66
2023/09/12 01:55:29;;;;;;;4.35;2.70;;;;;;;;;;5098963;28;20138;-67
2023/09/12 01:57:57;;;;;;;4.47;2.33;;;;;;;;;;5104703;28;20035;-66
2023/09/12 02:00:24;;;;;;;4.82;2.40;;;;;;;;;;5097032;27;20027;-68
2023/09/12 02:02:50;;;;;;;3.75;2.40;;;;;;;;;;5083276;28;20114;-66
2023/09/12 02:05:18;;;;;;;4.40;2.25;;;;;;;;;;5095102;28;20051;-66
2023/09/12 02:07:44;;;;;;;4.90;2.97;;;;;;;;;;5103128;28;20543;-66
2023/09/12 02:10:10;;;;;;;3.83;2.10;;;;;;;;;;5091601;28;20034;-66
2023/09/12 02:12:37;;;;;;;4.25;2.35;;;;;;;;;;5100336;28;20030;-66
2023/09/12 02:15:03;;;;;;;2.20;2.00;;;;;;;;;;5101229;28;20571;-66
2023/09/12 02:17:29;;;;;;;3.25;1.95;;;;;;;;;;5099644;28;20031;-66
2023/09/12 02:19:55;;;;;;;4.90;2.30;;;;;;;;;;5100615;28;20032;-66
2023/09/12 02:22:22;;;;;;;4.55;1.70;;;;;;;;;;5081696;28;20024;-66
2023/09/12 02:24:48;;;;;;;2.50;1.98;;;;;;;;;;5083949;28;20444;-66
2023/09/12 02:27:14;;;;;;;4.47;2.85;;;;;;;;;;5098504;28;20031;-66
2023/09/12 02:29:42;;;;;;;3.92;3.10;;;;;;;;;;5098698;28;20387;-66
2023/09/12 02:32:08;;;;;;;3.40;2.10;;;;;;;;;;5101091;28;20306;-66
2023/09/12 02:34:35;;;;;;;2.90;1.90;;;;;;;;;;5093422;28;20035;-66
2023/09/12 02:37:01;;;;;;;2.38;1.90;;;;;;;;;;5101876;28;20059;-66
2023/09/12 02:39:27;;;;;;;3.75;2.30;;;;;;;;;;5086712;28;20445;-66
2023/09/12 02:41:53;;;;;;;3.05;1.70;;;;;;;;;;5105216;28;20037;-66
2023/09/12 02:44:19;;;;;;;3.33;1.80;;;;;;;;;;5102391;28;20024;-66
2023/09/12 02:46:46;;;;;;;3.78;1.90;;;;;;;;;;5105659;28;20020;-66
2023/09/12 02:49:12;;;;;;;2.95;2.20;;;;;;;;;;5103561;28;20838;-66
2023/09/12 02:51:39;;;;;;;4.35;2.53;;;;;;;;;;5095860;28;20027;-66
2023/09/12 02:54:05;;;;;;;3.03;1.92;;;;;;;;;;5097847;28;20281;-66
2023/09/12 02:56:31;;;;;;;6.78;2.97;;;;;;;;;;5102144;28;20032;-66
2023/09/12 02:59:01;;;;;;;3.55;2.42;;;;;;;;;;5103738;28;20032;-66
2023/09/12 03:01:28;;;;;;;2.72;2.10;;;;;;;;;;5102612;28;20038;-66
2023/09/12 03:03:54;;;;;;;4.30;2.25;;;;;;;;;;5106088;28;20038;-66
2023/09/12 03:06:20;;;;;;;4.15;1.80;;;;;;;;;;5092187;28;20550;-66
2023/09/12 03:08:48;;;;;;;4.55;1.90;;;;;;;;;;5101505;28;20685;-66
2023/09/12 03:11:14;;;;;;;3.85;2.28;;;;;;;;;;5081277;28;20031;-66
2023/09/12 03:13:41;;;;;;;4.30;2.05;;;;;;;;;;5089729;28;20097;-66
2023/09/12 03:16:13;;;;;;;5.13;2.15;;;;;;;;;;5090508;28;20103;-66
2023/09/12 03:18:40;;;;;;;2.38;1.90;;;;;;;;;;5086161;28;20031;-66
2023/09/12 03:21:06;;;;;;;3.05;1.70;;;;;;;;;;5106392;28;20058;-66
2023/09/12 03:23:32;;;;;;;3.95;2.28;;;;;;;;;;5103281;28;20103;-67
2023/09/12 03:26:05;;;;;;;5.68;1.95;;;;;;;;;;5079182;28;20028;-66
2023/09/12 03:28:31;;;;;;;3.60;1.92;;;;;;;;;;5083330;28;20453;-66
2023/09/12 03:31:08;;;;;;;4.53;1.83;;;;;;;;;;5086700;28;20019;-66
2023/09/12 03:33:34;;;;;;;3.97;2.05;;;;;;;;;;5104429;28;20052;-66
2023/09/12 03:36:00;;;;;;;3.90;1.90;;;;;;;;;;5106870;28;20384;-67
2023/09/12 03:38:26;;;;;;;2.60;2.10;;;;;;;;;;5096665;28;20026;-66
2023/09/12 03:40:52;;;;;;;4.60;1.77;;;;;;;;;;5095337;28;20089;-67
2023/09/12 03:43:20;;;;;;;2.05;1.85;;;;;;;;;;5107978;28;20051;-66
2023/09/12 03:45:47;;;;;;;4.68;2.08;;;;;;;;;;5104461;28;20027;-66
2023/09/12 03:48:13;;;;;;;3.00;2.05;;;;;;;;;;5105225;28;20024;-66
2023/09/12 03:50:39;;;;;;;2.85;2.20;;;;;;;;;;5091909;28;20032;-66
2023/09/12 03:53:05;;;;;;;3.30;2.20;;;;;;;;;;5085955;28;20047;-66
2023/09/12 03:55:31;;;;;;;3.38;1.85;;;;;;;;;;5103504;28;20020;-66
2023/09/12 03:57:57;;;;;;;4.47;2.35;;;;;;;;;;5077904;28;20034;-66
2023/09/12 04:00:23;;;;;;;3.55;1.95;;;;;;;;;;5080230;28;20369;-66
2023/09/12 04:02:49;;;;;;;2.83;2.00;;;;;;;;;;5084564;28;20478;-66
2023/09/12 04:05:15;;;;;;;2.92;1.90;;;;;;;;;;5076248;28;20493;-66
2023/09/12 04:07:41;;;;;;;3.97;1.85;;;;;;;;;;5106492;28;20022;-66
2023/09/12 04:10:08;;;;;;;4.38;2.67;;;;;;;;;;5102676;28;20039;-66
2023/09/12 04:12:34;;;;;;;3.80;2.00;;;;;;;;;;5105203;28;20140;-66
2023/09/12 04:15:00;;;;;;;4.20;2.00;;;;;;;;;;5100763;28;20023;-67
2023/09/12 04:17:26;;;;;;;4.78;2.20;;;;;;;;;;5097867;28;20421;-66
2023/09/12 04:19:54;;;;;;;3.72;1.90;;;;;;;;;;5104879;28;20409;-66
2023/09/12 04:22:20;;;;;;;6.45;2.92;;;;;;;;;;5100415;28;20020;-66
2023/09/12 04:24:46;;;;;;;4.82;2.10;;;;;;;;;;5105222;28;20035;-66
2023/09/12 04:27:14;;;;;;;8.77;2.40;;;;;;;;;;5103480;28;20019;-66
2023/09/12 04:29:40;;;;;;;5.65;2.33;;;;;;;;;;5103003;28;20059;-66
2023/09/12 04:32:06;;;;;;;3.95;2.42;;;;;;;;;;5087181;28;20061;-66
2023/09/12 04:34:32;;;;;;;5.22;2.00;;;;;;;;;;5104636;28;20027;-66
2023/09/12 04:36:58;;;;;;;4.60;2.20;;;;;;;;;;5101336;28;20134;-66
2023/09/12 04:39:24;;;;;;;6.60;2.10;;;;;;;;;;5106862;28;20543;-66
2023/09/12 04:41:53;;;;;;;5.93;2.53;;;;;;;;;;5108336;28;20024;-66
2023/09/12 04:44:19;;;;;;;3.75;1.90;;;;;;;;;;5104789;28;20023;-66
2023/09/12 04:46:46;;;;;;;3.60;2.20;;;;;;;;;;5107142;28;20437;-67
2023/09/12 04:49:12;;;;;;;3.25;2.50;;;;;;;;;;5097657;28;20035;-66
2023/09/12 04:51:38;;;;;;;5.40;2.38;;;;;;;;;;5107221;28;20030;-66
2023/09/12 04:54:05;;;;;;;4.03;2.03;;;;;;;;;;5082462;28;20495;-66
2023/09/12 04:56:31;;;;;;;5.53;2.05;;;;;;;;;;5107236;28;20020;-66
2023/09/12 04:58:57;;;;;;;3.60;2.45;;;;;;;;;;5106071;28;20055;-66
2023/09/12 05:01:25;;;;;;;5.35;2.35;;;;;;;;;;5100562;28;20106;-66
2023/09/12 05:03:51;;;;;;;5.75;1.88;;;;;;;;;;5105248;28;20534;-66
2023/09/12 05:06:17;;;;;;;5.03;2.10;;;;;;;;;;5100156;28;20051;-66
2023/09/12 05:08:43;;;;;;;4.63;2.30;;;;;;;;;;5097111;28;20037;-66
2023/09/12 05:11:09;;;;;;;3.45;2.05;;;;;;;;;;5103398;28;20028;-68
2023/09/12 05:13:35;;;;;;;5.22;2.70;;;;;;;;;;5105766;28;20102;-66
2023/09/12 05:16:02;;;;;;;3.47;2.00;;;;;;;;;;5102360;28;20043;-66
2023/09/12 05:18:28;;;;;;;3.03;2.25;;;;;;;;;;5100307;28;20024;-66
2023/09/12 05:20:54;;;;;;;3.85;2.03;;;;;;;;;;5102909;28;20364;-65
2023/09/12 05:23:20;;;;;;;2.88;2.20;;;;;;;;;;5107089;28;20023;-66
2023/09/12 05:25:46;;;;;;;2.47;1.77;;;;;;;;;;5104974;28;20102;-65
2023/09/12 05:28:15;;;;;;;4.63;1.70;;;;;;;;;;5103170;28;20395;-66
2023/09/12 05:30:42;;;;;;;2.95;1.88;;;;;;;;;;5104958;28;20035;-66
2023/09/12 05:33:08;;;;;;;4.90;1.90;;;;;;;;;;5100390;28;20038;-66
2023/09/12 05:35:34;;;;;;;4.63;2.03;;;;;;;;;;5103989;28;20069;-66
2023/09/12 05:38:00;;;;;;;6.57;2.38;;;;;;;;;;5102440;28;20786;-68
2023/09/12 05:40:26;;;;;;;5.15;2.13;;;;;;;;;;5104251;27;20451;-70
2023/09/12 05:42:52;;;;;;;2.65;2.10;;;;;;;;;;5092427;28;20535;-68
2023/09/12 05:45:19;;;;;;;5.32;2.58;;;;;;;;;;5101894;28;20387;-66
2023/09/12 05:47:45;;;;;;;3.28;2.88;;;;;;;;;;5084486;28;20039;-67
2023/09/12 05:50:11;;;;;;;2.75;1.75;;;;;;;;;;5102912;28;20024;-67
2023/09/12 05:52:37;;;;;;;5.85;2.00;;;;;;;;;;5096875;28;20382;-66
2023/09/12 05:55:04;;;;;;;7.38;2.47;;;;;;;;;;5092162;28;20510;-66
2023/09/12 05:57:33;;;;;;;2.30;1.80;;;;;;;;;;5099658;28;20020;-66
2023/09/12 06:00:05;;;;;;;3.45;2.00;;;;;;;;;;5096968;28;21359;-66
2023/09/12 06:02:33;;;;;;;6.15;2.10;;;;;;;;;;5097572;28;20035;-66
2023/09/12 06:04:59;;;;;;;6.15;2.03;;;;;;;;;;5101374;28;20033;-66
2023/09/12 06:07:25;;;;;;;5.00;2.15;;;;;;;;;;5104135;28;20100;-66
2023/09/12 06:09:51;;;;;;;4.28;1.80;;;;;;;;;;5099110;28;20512;-66
2023/09/12 06:12:18;;;;;;;5.82;2.00;;;;;;;;;;5103753;28;20406;-66
2023/09/12 06:14:44;;;;;;;6.95;2.00;;;;;;;;;;5101175;28;20026;-66
2023/09/12 06:17:10;;;;;;;3.17;1.85;;;;;;;;;;5104214;28;20052;-66
2023/09/12 06:19:36;;;;;;;8.05;2.05;;;;;;;;;;5104157;28;20035;-72
2023/09/12 06:22:02;;;;;;;5.70;2.40;;;;;;;;;;5087580;28;20032;-71
2023/09/12 06:24:28;;;;;;;5.40;2.17;;;;;;;;;;5099341;28;20019;-71
2023/09/12 06:26:54;;;;;;;5.57;2.00;;;;;;;;;;5101651;28;20028;-71
2023/09/12 06:29:21;;;;;;;5.03;2.08;;;;;;;;;;5101345;28;20118;-70
2023/09/12 06:31:47;;;;;;;4.32;1.90;;;;;;;;;;5104313;27;20039;-71
2023/09/12 06:34:13;;;;;;;3.67;1.80;;;;;;;;;;5097643;28;20054;-71
2023/09/12 06:36:41;;;;;;;4.50;2.70;;;;;;;;;;5102503;28;20038;-71
2023/09/12 06:39:07;;;;;;;6.13;2.00;;;;;;;;;;5081267;28;20093;-71
2023/09/12 06:41:33;;;;;;;3.40;1.92;;;;;;;;;;5096499;28;20058;-71
2023/09/12 06:43:59;;;;;;;5.45;2.10;;;;;;;;;;5101370;28;20578;-71
2023/09/12 06:46:26;;;;;;;8.63;2.00;;;;;;;;;;5099555;28;20051;-72
2023/09/12 06:48:52;;;;;;;3.97;1.88;;;;;;;;;;5088974;28;20062;-72
2023/09/12 06:51:18;;;;;;;11.55;3.17;;;;;;;;;;5101403;28;20036;-72
2023/09/12 06:53:44;;;;;;;2.50;1.90;;;;;;;;;;5080806;28;20024;-71
2023/09/12 06:56:10;;;;;;;2.95;2.20;;;;;;;;;;5101164;28;20027;-72
2023/09/12 06:58:36;;;;;;;2.92;1.77;;;;;;;;;;5097980;28;20019;-71
2023/09/12 07:01:03;;;;;;;4.65;2.03;;;;;;;;;;5104351;28;20108;-71
2023/09/12 07:03:30;;;;;;;6.50;2.55;;;;;;;;;;5102916;28;20395;-71
2023/09/12 07:05:57;;;;;;;11.55;2.38;;;;;;;;;;5096869;28;20157;-71
2023/09/12 07:08:23;;;;;;;5.32;2.10;;;;;;;;;;5103865;28;20020;-71
2023/09/12 07:10:49;;;;;;;5.65;2.95;;;;;;;;;;5100121;28;20043;-71
2023/09/12 07:13:15;;;;;;;3.08;1.92;;;;;;;;;;5101407;28;20320;-71
2023/09/12 07:15:41;;;;;;;3.05;1.83;;;;;;;;;;5098630;28;20035;-72
2023/09/12 07:18:07;;;;;;;4.70;2.17;;;;;;;;;;5091397;28;20052;-72
2023/09/12 07:20:34;;;;;;;5.60;1.75;;;;;;;;;;5101164;28;20031;-71
2023/09/12 07:23:01;;;;;;;4.88;2.60;;;;;;;;;;5083892;28;20655;-71
2023/09/12 07:25:27;;;;;;;3.15;1.73;;;;;;;;;;5103212;28;20024;-72
2023/09/12 07:27:53;;;;;;;3.33;2.00;;;;;;;;;;5104539;28;20031;-72
2023/09/12 07:30:19;;;;;;;4.90;2.20;;;;;;;;;;5097987;28;20047;-72
2023/09/12 07:32:46;;;;;;;4.45;2.13;;;;;;;;;;5106380;28;20028;-72
2023/09/12 07:35:12;;;;;;;5.25;2.30;;;;;;;;;;5088086;28;20020;-72
2023/09/12 07:37:38;;;;;;;5.95;2.15;;;;;;;;;;5099638;28;20030;-73
2023/09/12 07:40:09;;;;;;;3.47;2.10;;;;;;;;;;5099996;28;20084;-72
2023/09/12 07:42:36;;;;;;;4.55;2.08;;;;;;;;;;5095985;28;20445;-71
2023/09/12 07:45:03;;;;;;;2.55;1.98;;;;;;;;;;5085925;28;20114;-73
2023/09/12 07:47:29;;;;;;;5.65;2.90;;;;;;;;;;5092639;28;20047;-71
2023/09/12 07:49:55;;;;;;;5.18;1.95;;;;;;;;;;5097947;28;20620;-71
2023/09/12 07:52:22;;;;;;;4.13;1.88;;;;;;;;;;5092695;28;20081;-72
2023/09/12 07:54:50;;;;;;;3.72;2.00;;;;;;;;;;5077894;28;20051;-72
2023/09/12 07:57:16;;;;;;;6.47;3.10;;;;;;;;;;5094663;28;20035;-71
2023/09/12 07:59:42;;;;;;;4.88;2.25;;;;;;;;;;5095776;28;20027;-72
2023/09/12 08:02:08;;;;;;;4.20;2.03;;;;;;;;;;5097287;28;20065;-71
2023/09/12 08:04:34;;;;;;;2.90;2.15;;;;;;;;;;5095934;27;20199;-70
2023/09/12 08:07:00;;;;;;;3.35;1.90;;;;;;;;;;5097521;28;20019;-71
2023/09/12 08:09:46;;;;;;;3.42;2.00;;;;;;;;;;5097276;27;20436;-71
2023/09/12 08:12:12;;;;;;;7.32;2.75;;;;;;;;;;5099349;28;20396;-72
2023/09/12 08:14:39;;;;;;;5.30;1.85;;;;;;;;;;5097913;28;20467;-71
2023/09/12 08:17:05;;;;;;;3.50;1.92;;;;;;;;;;5097642;27;20043;-71
2023/09/12 08:19:31;;;;;;;3.30;1.92;;;;;;;;;;5098255;28;20123;-71
2023/09/12 08:21:57;;;;;;;2.38;1.80;;;;;;;;;;5098728;28;20061;-70
2023/09/12 08:24:23;;;;;;;5.50;1.70;;;;;;;;;;5098135;28;20019;-71
2023/09/12 08:26:49;;;;;;;4.97;2.08;;;;;;;;;;5078673;28;20112;-71
2023/09/12 08:29:15;;;;;;;4.13;2.38;;;;;;;;;;5098914;27;20443;-71
2023/09/12 08:31:41;;;;;;;5.93;2.00;;;;;;;;;;5102026;28;20035;-71
2023/09/12 08:34:07;;;;;;;6.07;3.13;;;;;;;;;;5103736;27;20043;-71
2023/09/12 08:36:35;;;;;;;3.78;2.10;;;;;;;;;;5096261;28;20024;-72
2023/09/12 08:39:02;;;;;;;5.82;1.88;;;;;;;;;;5100891;28;20050;-71
2023/09/12 08:41:28;;;;;;;3.53;2.33;;;;;;;;;;5100397;28;20031;-72
2023/09/12 08:43:55;;;;;;;8.45;2.13;;;;;;;;;;5102580;28;20027;-71
2023/09/12 08:46:21;;;;;;;3.42;1.55;;;;;;;;;;5095885;28;20031;-71
2023/09/12 08:48:50;;;;;;;4.88;2.08;;;;;;;;;;5081674;28;20070;-71
2023/09/12 08:51:16;;;;;;;5.22;2.08;;;;;;;;;;5100871;28;20028;-72
2023/09/12 08:53:42;;;;;;;2.50;1.67;;;;;;;;;;5074815;28;20031;-71
2023/09/12 08:56:09;;;;;;;2.65;1.90;;;;;;;;;;5072269;28;20040;-71
2023/09/12 08:58:36;;;;;;;2.92;1.88;;;;;;;;;;5098838;28;20057;-72
2023/09/12 09:01:03;;;;;;;3.53;1.90;;;;;;;;;;5087096;28;20558;-69
2023/09/12 09:03:29;;;;;;;3.70;1.77;;;;;;;;;;5090182;28;20103;-72
2023/09/12 09:05:56;;;;;;;5.35;2.03;;;;;;;;;;5096041;28;20434;-66
2023/09/12 09:08:23;;;;;;;6.22;2.28;;;;;;;;;;5073684;28;20414;-72
2023/09/12 09:10:55;;;;;;;2.30;1.67;;;;;;;;;;5097031;28;20179;-71
2023/09/12 09:13:22;;;;;;;6.72;1.73;;;;;;;;;;5090196;28;20523;-70
2023/09/12 09:15:48;;;;;;;3.33;1.80;;;;;;;;;;5093723;28;20039;-71
2023/09/12 09:18:14;;;;;;;4.07;1.85;;;;;;;;;;5075044;28;20055;-71
2023/09/12 09:20:49;;;;;;;4.28;2.10;;;;;;;;;;5089997;28;20043;-72
2023/09/12 09:23:15;;;;;;;8.80;2.30;;;;;;;;;;5095081;28;20026;-71
2023/09/12 09:25:42;;;;;;;3.13;1.90;;;;;;;;;;5090314;28;20375;-71
2023/09/12 09:28:18;;;;;;;6.78;2.00;;;;;;;;;;5077565;28;20027;-71
2023/09/12 09:30:45;;;;;;;1.75;1.55;;;;;;;;;;5096043;28;20030;-72
2023/09/12 09:33:12;;;;;;;4.60;1.80;;;;;;;;;;5092476;28;20028;-72
2023/09/12 09:35:40;;;;;;;4.15;1.92;;;;;;;;;;5076947;28;20036;-72
2023/09/12 09:38:07;;;;;;;4.15;1.80;;;;;;;;;;5093258;28;20505;-74
2023/09/12 09:40:33;;;;;;;3.45;1.80;;;;;;;;;;5096596;28;20154;-71
2023/09/12 09:43:00;;;;;;;2.00;1.70;;;;;;;;;;5095602;28;20058;-71
2023/09/12 09:45:27;;;;;;;3.58;1.70;;;;;;;;;;5097844;28;20081;-72
2023/09/12 09:47:57;;;;;;;4.45;1.88;;;;;;;;;;5100023;28;21380;-71
2023/09/12 09:50:23;;;;;;;2.40;1.70;;;;;;;;;;5096935;28;20364;-72
2023/09/12 09:52:54;;;;;;;3.80;1.77;;;;;;;;;;5098284;28;20089;-71
2023/09/12 09:55:20;;;;;;;4.15;1.88;;;;;;;;;;5094192;28;20110;-71
2023/09/12 09:57:48;;;;;;;5.85;2.00;;;;;;;;;;5089620;28;20595;-71
2023/09/12 10:00:14;;;;;;;3.55;1.80;;;;;;;;;;5079225;28;20470;-73
2023/09/12 10:02:41;;;;;;;2.30;1.67;;;;;;;;;;5097245;28;20552;-72
2023/09/12 10:05:11;;;;;;;3.47;1.95;;;;;;;;;;5085848;28;20149;-72
2023/09/12 10:07:38;;;;;;;4.85;2.10;;;;;;;;;;5094588;28;20031;-73
2023/09/12 10:10:05;;;;;;;1.65;1.55;;;;;;;;;;5097409;28;20031;-70
2023/09/12 10:12:31;;;;;;;3.83;1.95;;;;;;;;;;5097326;28;20027;-72
2023/09/12 10:15:00;;;;;;;3.38;1.60;;;;;;;;;;5085129;28;20046;-71
2023/09/12 10:17:37;;;;;;;2.75;1.70;;;;;;;;;;5099217;28;20126;-71
2023/09/12 10:20:04;;;;;;;4.82;1.95;;;;;;;;;;5102401;28;20124;-71
2023/09/12 10:23:03;;;;;;;4.35;1.70;;;;;;;;;;5102416;28;20023;-71
2023/09/12 10:25:32;;;;;;;5.55;1.80;;;;;;;;;;5069582;28;20100;-71
2023/09/12 10:27:58;;;;;;;3.42;2.03;;;;;;;;;;5082526;28;20291;-70
2023/09/12 10:30:25;;;;;;;7.55;2.13;;;;;;;;;;5101296;28;20490;-70
2023/09/12 10:32:52;;;;;;;4.75;2.00;;;;;;;;;;5099232;28;20023;-70
2023/09/12 10:35:18;;;;;;;2.28;1.80;;;;;;;;;;5099228;28;20070;-73
2023/09/12 10:37:45;;;;;;;3.63;2.33;;;;;;;;;;5073951;28;20027;-74
2023/09/12 10:40:11;;;;;;;2.25;1.75;;;;;;;;;;5073539;28;20024;-74
2023/09/12 10:42:41;;;;;;;6.45;1.90;;;;;;;;;;5096507;28;20042;-72
2023/09/12 10:45:08;;;;;;;2.90;1.83;;;;;;;;;;5100828;28;20035;-69
2023/09/12 10:47:35;;;;;;;3.85;1.65;;;;;;;;;;5101282;28;20033;-70
2023/09/12 10:50:02;;;;;;;5.53;2.00;;;;;;;;;;5100631;28;20471;-68
2023/09/12 10:52:29;;;;;;;4.32;1.70;;;;;;;;;;5095975;28;20051;-70
2023/09/12 10:54:56;;;;;;;1.95;1.45;;;;;;;;;;5098185;28;20035;-69
2023/09/12 10:57:22;;;;;;;4.07;1.70;;;;;;;;;;5097385;28;20451;-69
2023/09/12 11:00:10;;;;;;;2.67;1.63;;;;;;;;;;5097905;28;20459;-69
2023/09/12 11:02:43;;;;;;;2.35;1.63;;;;;;;;;;5100196;28;20028;-70
2023/09/12 11:05:28;;;;;;;2.95;1.75;;;;;;;;;;5078717;28;20675;-72
2023/09/12 11:07:58;;;;;;;4.55;2.10;;;;;;;;;;5098976;28;20031;-70
2023/09/12 11:10:32;;;;;;;1.70;1.50;;;;;;;;;;5096035;28;20107;-70
2023/09/12 11:12:59;;;;;;;3.33;1.85;;;;;;;;;;5102715;28;20055;-69
2023/09/12 11:15:26;;;;;;;3.60;1.55;;;;;;;;;;5099025;28;20063;-72
2023/09/12 11:18:05;;;;;;;2.72;1.60;;;;;;;;;;5098985;28;20024;-71
2023/09/12 11:20:52;;;;;;;1.98;1.77;;;;;;;;;;5100034;28;20154;-72
2023/09/12 11:23:19;;;;;;;5.20;1.90;;;;;;;;;;5096182;28;20016;-72
2023/09/12 11:25:45;;;;;;;3.13;1.98;;;;;;;;;;5100644;28;20031;-72
2023/09/12 11:28:11;;;;;;;3.05;1.75;;;;;;;;;;5081450;28;20532;-72
2023/09/12 11:30:37;;;;;;;2.38;1.65;;;;;;;;;;5094001;28;20027;-72
2023/09/12 11:33:11;;;;;;;4.35;1.60;;;;;;;;;;5096911;28;20059;-71
2023/09/12 11:35:40;;;;;;;4.28;2.20;;;;;;;;;;5096283;28;20024;-72
2023/09/12 11:38:10;;;;;;;3.42;1.80;;;;;;;;;;5081208;28;20031;-71
2023/09/12 11:40:36;;;;;;;2.63;1.58;;;;;;;;;;5084265;28;20032;-71
2023/09/12 11:43:02;;;;;;;3.97;1.80;;;;;;;;;;5107000;28;20842;-71
2023/09/12 11:45:28;;;;;;;4.93;1.90;;;;;;;;;;5101712;28;20135;-71
2023/09/12 11:47:55;;;;;;;5.45;2.10;;;;;;;;;;5102908;28;20028;-71
2023/09/12 11:50:27;;;;;;;3.15;2.28;;;;;;;;;;5087249;28;20027;-71
2023/09/12 11:53:14;;;;;;;8.40;2.90;;;;;;;;;;5098321;28;20127;-71
2023/09/12 11:55:48;;;;;;;1.98;1.70;;;;;;;;;;5103296;28;20040;-71
2023/09/12 11:58:14;;;;;;;3.35;1.73;;;;;;;;;;5104192;28;20465;-71
2023/09/12 12:00:49;;;;;;;4.45;1.73;;;;;;;;;;5105884;28;20024;-72
2023/09/12 12:03:15;;;;;;;3.60;1.70;;;;;;;;;;5102867;28;20463;-71
2023/09/12 12:05:41;;;;;;;3.90;1.90;;;;;;;;;;5107721;28;20034;-71
2023/09/12 12:08:08;;;;;;;2.85;1.75;;;;;;;;;;5110979;28;20036;-71
2023/09/12 12:10:35;;;;;;;3.05;2.00;;;;;;;;;;5102527;28;20028;-71
2023/09/12 12:13:02;;;;;;;3.05;2.22;;;;;;;;;;5095755;28;20543;-72
2023/09/12 12:15:28;;;;;;;4.20;1.90;;;;;;;;;;5102867;28;20047;-72
2023/09/12 12:17:57;;;;;;;3.97;2.17;;;;;;;;;;5111738;27;20038;-72
2023/09/12 12:20:27;;;;;;;3.63;2.40;;;;;;;;;;5106604;28;20518;-72
2023/09/12 12:22:54;;;;;;;2.78;1.70;;;;;;;;;;5077964;28;20036;-72
2023/09/12 12:25:20;;;;;;;3.45;2.08;;;;;;;;;;5105756;28;20046;-72
2023/09/12 12:27:46;;;;;;;2.65;1.90;;;;;;;;;;5097307;28;20054;-72
2023/09/12 12:30:13;;;;;;;4.43;2.40;;;;;;;;;;5090953;28;20438;-72
2023/09/12 12:32:46;;;;;;;2.05;1.80;;;;;;;;;;5103110;28;20032;-71
2023/09/12 12:35:21;;;;;;;3.85;1.77;;;;;;;;;;5102039;28;20092;-72
2023/09/12 12:37:51;;;;;;;5.10;1.88;;;;;;;;;;5105228;28;20035;-72
2023/09/12 12:40:18;;;;;;;3.83;2.25;;;;;;;;;;5103680;28;20498;-71
2023/09/12 12:42:47;;;;;;;2.47;1.80;;;;;;;;;;5107309;28;20035;-72
2023/09/12 12:45:14;;;;;;;3.72;2.30;;;;;;;;;;5100722;28;20027;-70
2023/09/12 12:47:41;;;;;;;2.90;2.15;;;;;;;;;;5073908;28;20062;-69
2023/09/12 12:50:13;;;;;;;3.65;1.60;;;;;;;;;;5097340;28;20032;-69
2023/09/12 12:52:40;;;;;;;2.40;1.80;;;;;;;;;;5098104;28;20582;-69
2023/09/12 12:55:07;;;;;;;3.00;1.85;;;;;;;;;;5095916;28;20515;-70
2023/09/12 12:57:36;;;;;;;2.50;1.77;;;;;;;;;;5098251;28;20083;-69
2023/09/12 13:00:03;;;;;;;6.20;2.75;;;;;;;;;;5099108;28;20034;-72
2023/09/12 13:02:29;;;;;;;3.08;1.80;;;;;;;;;;5098522;27;20479;-68
2023/09/12 13:04:55;;;;;;;3.28;2.00;;;;;;;;;;5100584;28;20399;-75
2023/09/12 13:07:23;;;;;;;3.75;2.10;;;;;;;;;;5073819;28;20028;-72
2023/09/12 13:09:50;;;;;;;3.97;2.10;;;;;;;;;;5099682;28;20092;-70
2023/09/12 13:12:17;;;;;;;5.07;2.03;;;;;;;;;;5078379;28;20391;-72
2023/09/12 13:14:44;;;;;;;3.17;2.00;;;;;;;;;;5099131;28;20031;-72
2023/09/12 13:17:10;;;;;;;2.42;2.10;;;;;;;;;;5097706;28;20048;-73
2023/09/12 13:19:36;;;;;;;3.67;1.80;;;;;;;;;;5073741;28;20559;-73
2023/09/12 13:22:03;;;;;;;3.40;1.88;;;;;;;;;;5098190;28;20024;-73
2023/09/12 13:24:29;;;;;;;2.90;2.00;;;;;;;;;;5090420;28;20031;-72
2023/09/12 13:26:55;;;;;;;4.55;2.30;;;;;;;;;;5077075;28;20563;-74
2023/09/12 13:29:21;;;;;;;3.20;2.05;;;;;;;;;;5081287;28;20096;-72
2023/09/12 13:31:56;;;;;;;3.90;2.05;;;;;;;;;;5101248;28;20038;-74
2023/09/12 13:34:22;;;;;;;2.90;1.90;;;;;;;;;;5091281;28;20027;-74
2023/09/12 13:36:53;;;;;;;3.08;1.92;;;;;;;;;;5100566;28;20141;-75
2023/09/12 13:39:21;;;;;;;3.00;1.92;;;;;;;;;;5100851;28;20384;-74
2023/09/12 13:41:48;;;;;;;3.88;2.03;;;;;;;;;;5097477;28;20578;-72
2023/09/12 13:44:14;;;;;;;4.45;1.95;;;;;;;;;;5099507;28;20028;-73
2023/09/12 13:46:44;;;;;;;3.97;1.80;;;;;;;;;;5100440;28;20028;-74
2023/09/12 13:49:10;;;;;;;6.18;1.90;;;;;;;;;;5096265;28;20031;-75
2023/09/12 13:51:36;;;;;;;3.70;2.00;;;;;;;;;;5078951;28;20530;-74
2023/09/12 13:54:03;;;;;;;3.28;2.00;;;;;;;;;;5096025;28;20483;-73
2023/09/12 13:56:29;;;;;;;3.75;2.50;;;;;;;;;;5101240;28;20398;-73
2023/09/12 13:58:55;;;;;;;3.58;2.08;;;;;;;;;;5095378;28;20031;-73
2023/09/12 14:01:22;;;;;;;3.80;1.92;;;;;;;;;;5096538;27;20039;-72
2023/09/12 14:03:56;;;;;;;2.83;1.80;;;;;;;;;;5094253;28;22133;-72
2023/09/12 14:06:22;;;;;;;3.20;2.00;;;;;;;;;;5096904;28;20031;-72
2023/09/12 14:08:51;;;;;;;4.18;2.03;;;;;;;;;;5096524;28;20565;-72
2023/09/12 14:11:17;;;;;;;3.90;2.13;;;;;;;;;;5080538;28;20035;-72
2023/09/12 14:13:43;;;;;;;3.60;2.20;;;;;;;;;;5094231;28;20074;-72
2023/09/12 14:16:10;;;;;;;3.90;2.03;;;;;;;;;;5098391;28;20423;-70
2023/09/12 14:18:37;;;;;;;2.55;2.10;;;;;;;;;;5096552;28;20388;-70
2023/09/12 14:21:03;;;;;;;2.67;2.13;;;;;;;;;;5098218;28;20028;-70
2023/09/12 14:23:29;;;;;;;3.67;2.40;;;;;;;;;;5094597;28;20028;-72
2023/09/12 14:25:55;;;;;;;4.68;2.47;;;;;;;;;;5090124;28;20061;-69
2023/09/12 14:28:21;;;;;;;3.33;2.50;;;;;;;;;;5097017;28;20032;-70
2023/09/12 14:30:49;;;;;;;5.43;2.08;;;;;;;;;;5097483;28;20031;-70
2023/09/12 14:33:15;;;;;;;3.05;2.35;;;;;;;;;;5095553;28;20024;-70
2023/09/12 14:35:41;;;;;;;3.20;2.00;;;;;;;;;;5100036;28;20027;-71
2023/09/12 14:38:08;;;;;;;4.18;2.00;;;;;;;;;;5100885;28;20030;-69
2023/09/12 14:40:34;;;;;;;3.20;1.98;;;;;;;;;;5099549;28;20027;-70
2023/09/12 14:43:00;;;;;;;4.03;2.30;;;;;;;;;;5099051;28;20046;-70